Time;durP1;ratioP1;P1;durP2;ratioP2;P2;SDS_P1;SDS_P2;PMS_P1;PMS_P2;Temp;Humidity;BMP_temperature;BMP_pressure;BME280_temperature;BME280_humidity;BME280_pressure;Samples;Min_cycle;Max_cycle;Signal;HPM_P1;HPM_P2
2022/12/08 00:01:22;;;;;;;54.13;29.30;;;;;;;9.35;100.00;98175.13;5104711;28;20065;-92
2022/12/08 00:03:48;;;;;;;46.45;29.08;;;;;;;9.49;100.00;98199.44;5107680;28;20039;-93
2022/12/08 00:09:26;;;;;;;49.47;29.02;;;;;;;9.44;100.00;98199.56;5107756;27;20381;-94
2022/12/08 00:11:57;;;;;;;49.40;30.52;;;;;;;9.51;100.00;98210.88;5097045;28;20441;-92
2022/12/08 00:14:25;;;;;;;50.17;31.15;;;;;;;9.50;100.00;98206.50;5094016;28;20070;-91
2022/12/08 00:16:52;;;;;;;48.07;29.33;;;;;;;9.51;100.00;98208.22;5094432;28;20066;-92
2022/12/08 00:19:17;;;;;;;47.10;29.30;;;;;;;9.37;100.00;98192.75;5093447;28;20044;-91
2022/12/08 00:21:43;;;;;;;43.05;28.20;;;;;;;9.38;100.00;98201.56;5092271;28;20047;-92
2022/12/08 00:24:09;;;;;;;44.63;27.70;;;;;;;9.31;100.00;98174.34;5095952;28;20450;-91
2022/12/08 00:26:37;;;;;;;41.13;27.73;;;;;;;9.33;100.00;98177.81;5093313;28;20058;-91
2022/12/08 00:29:03;;;;;;;43.33;27.45;;;;;;;9.30;100.00;98182.34;5095318;28;20036;-92
2022/12/08 00:31:29;;;;;;;41.17;26.58;;;;;;;9.36;100.00;98192.78;5093711;28;20052;-91
2022/12/08 00:33:55;;;;;;;46.78;28.80;;;;;;;9.39;100.00;98190.91;5095791;28;20558;-90
2022/12/08 00:36:21;;;;;;;48.88;28.73;;;;;;;9.21;100.00;98159.63;5091243;28;20497;-92
2022/12/08 00:38:47;;;;;;;42.92;28.38;;;;;;;9.44;100.00;98209.34;5093667;28;20035;-91
2022/12/08 00:41:15;;;;;;;49.47;28.98;;;;;;;9.28;100.00;98186.84;5093786;28;20443;-92
2022/12/08 00:43:42;;;;;;;45.42;28.95;;;;;;;9.30;100.00;98179.69;5094718;28;20042;-92
2022/12/08 00:46:09;;;;;;;45.67;28.50;;;;;;;9.39;100.00;98187.34;5091705;28;20382;-92
2022/12/08 00:48:35;;;;;;;44.42;28.45;;;;;;;9.48;100.00;98200.38;5091783;28;20033;-92
2022/12/08 00:51:03;;;;;;;40.83;27.42;;;;;;;9.45;100.00;98201.34;5094909;28;20047;-91
2022/12/08 00:53:30;;;;;;;47.88;29.33;;;;;;;9.30;100.00;98175.25;5091277;28;20040;-91
2022/12/08 00:55:55;;;;;;;40.95;27.73;;;;;;;9.56;100.00;98227.50;5092250;28;20032;-91
2022/12/08 00:58:21;;;;;;;48.17;30.42;;;;;;;9.47;100.00;98211.88;5091231;28;20370;-91
2022/12/08 01:00:48;;;;;;;51.28;30.13;;;;;;;9.40;100.00;98192.63;5093009;28;20044;-91
2022/12/08 01:03:14;;;;;;;43.60;28.50;;;;;;;9.48;100.00;98204.78;5089833;28;20091;-91
2022/12/08 01:05:40;;;;;;;42.90;26.92;;;;;;;9.51;100.00;98200.25;5097185;28;20037;-90
2022/12/08 01:08:07;;;;;;;40.95;28.13;;;;;;;9.48;100.00;98186.19;5092258;28;20055;-91
2022/12/08 01:10:34;;;;;;;45.15;28.38;;;;;;;9.46;100.00;98195.09;5094192;28;20098;-91
2022/12/08 01:13:00;;;;;;;46.83;28.27;;;;;;;9.59;100.00;98215.94;5088800;28;20041;-91
2022/12/08 01:15:26;;;;;;;44.03;28.98;;;;;;;9.46;100.00;98194.22;5088316;28;20040;-91
2022/12/08 01:17:53;;;;;;;44.47;28.60;;;;;;;9.44;100.00;98193.41;5095230;28;20108;-92
2022/12/08 01:20:19;;;;;;;44.80;29.33;;;;;;;9.44;100.00;98180.16;5081677;28;20044;-93
2022/12/08 01:22:45;;;;;;;42.50;28.23;;;;;;;9.69;100.00;98204.09;5078498;28;20370;-92
2022/12/08 01:25:11;;;;;;;43.92;29.55;;;;;;;9.64;100.00;98198.06;5080196;28;20409;-92
2022/12/08 01:27:37;;;;;;;43.33;28.10;;;;;;;9.58;100.00;98191.16;5079358;28;20043;-91
2022/12/08 01:30:03;;;;;;;44.58;27.52;;;;;;;9.43;100.00;98171.31;5077314;28;20127;-92
2022/12/08 01:32:29;;;;;;;45.05;28.63;;;;;;;9.60;100.00;98201.75;5076513;28;20043;-92
2022/12/08 01:34:56;;;;;;;43.72;28.17;;;;;;;9.61;100.00;98191.09;5082581;28;20126;-91
2022/12/08 01:37:22;;;;;;;44.88;27.63;;;;;;;9.71;100.00;98198.75;5081174;28;20457;-91
2022/12/08 01:39:48;;;;;;;44.10;28.67;;;;;;;9.74;100.00;98201.31;5076517;28;20135;-92
2022/12/08 01:42:20;;;;;;;41.92;28.27;;;;;;;9.57;100.00;98175.31;5077624;28;20090;-91
2022/12/08 01:44:55;;;;;;;43.47;28.05;;;;;;;9.62;100.00;98179.53;5077354;28;20499;-92
2022/12/08 01:47:24;;;;;;;41.75;28.02;;;;;;;9.73;100.00;98192.47;5081579;28;20063;-91
2022/12/08 01:49:50;;;;;;;42.75;27.40;;;;;;;9.66;100.00;98177.66;5081474;28;20063;-91
2022/12/08 01:52:22;;;;;;;43.67;27.95;;;;;;;9.57;100.00;98170.88;5077480;28;20504;-92
2022/12/08 01:54:52;;;;;;;41.65;26.63;;;;;;;9.66;100.00;98199.75;5079012;28;20045;-91
2022/12/08 01:57:22;;;;;;;39.47;26.55;;;;;;;9.63;100.00;98197.22;5077919;28;20037;-92
2022/12/08 01:59:53;;;;;;;41.63;26.48;;;;;;;9.55;100.00;98175.34;5081338;28;20075;-91
2022/12/08 02:02:19;;;;;;;38.53;26.05;;;;;;;9.66;100.00;98188.28;5076831;28;20045;-92
2022/12/08 02:04:45;;;;;;;38.88;24.50;;;;;;;9.60;100.00;98189.34;5076980;28;20044;-91
2022/12/08 02:07:13;;;;;;;36.88;21.58;;;;;;;9.50;100.00;98187.03;5076608;28;20140;-91
2022/12/08 02:09:40;;;;;;;34.30;19.88;;;;;;;9.45;100.00;98182.75;5081092;28;20044;-91
2022/12/08 02:12:07;;;;;;;33.88;20.00;;;;;;;9.53;100.00;98202.88;5079456;28;20045;-91
2022/12/08 02:14:34;;;;;;;32.97;19.75;;;;;;;9.44;100.00;98182.78;5079553;28;20401;-91
2022/12/08 02:17:04;;;;;;;33.92;19.63;;;;;;;9.37;100.00;98168.84;5082004;28;20040;-91
2022/12/08 02:20:09;;;;;;;31.67;19.00;;;;;;;9.41;100.00;98170.50;5076538;28;20123;-92
2022/12/08 02:22:43;;;;;;;33.47;18.70;;;;;;;9.54;100.00;98180.69;5076860;28;20048;-91
2022/12/08 02:25:18;;;;;;;35.10;19.85;;;;;;;9.34;100.00;98158.31;5075092;28;20550;-91
2022/12/08 02:27:57;;;;;;;36.45;19.15;;;;;;;9.36;100.00;98168.91;5076583;28;20063;-91
2022/12/08 02:30:25;;;;;;;31.13;18.40;;;;;;;9.32;100.00;98164.59;5076498;28;20048;-91
2022/12/08 02:33:27;;;;;;;33.42;17.67;;;;;;;9.40;100.00;98167.88;5074031;28;20562;-91
2022/12/08 02:36:03;;;;;;;30.05;16.90;;;;;;;9.34;100.00;98171.59;5078286;28;20039;-91
2022/12/08 02:38:43;;;;;;;29.92;15.15;;;;;;;9.29;100.00;98156.75;5081207;28;20039;-90
2022/12/08 02:41:30;;;;;;;29.73;16.52;;;;;;;9.25;100.00;98163.94;5079521;28;20040;-92
2022/12/08 02:44:03;;;;;;;36.80;21.95;;;;;;;9.37;100.00;98166.22;5079620;28;20059;-92
2022/12/08 02:46:35;;;;;;;38.13;24.17;;;;;;;9.48;100.00;98176.47;5075259;28;20047;-92
2022/12/08 02:49:02;;;;;;;30.92;18.92;;;;;;;9.51;100.00;98183.47;5076592;28;20033;-92
2022/12/08 02:51:29;;;;;;;36.67;21.17;;;;;;;9.46;100.00;98168.56;5074630;28;20067;-92
2022/12/08 02:53:56;;;;;;;34.25;20.05;;;;;;;9.50;100.00;98168.44;5078083;28;20139;-91
2022/12/08 02:56:37;;;;;;;33.22;19.60;;;;;;;9.55;100.00;98145.28;5073028;28;20552;-92
2022/12/08 02:59:15;;;;;;;30.52;16.45;;;;;;;9.49;100.00;98148.16;5077742;28;20036;-92
2022/12/08 03:01:59;;;;;;;26.60;15.63;;;;;;;9.49;100.00;98143.69;5075198;28;20516;-92
2022/12/08 03:04:34;;;;;;;25.13;14.40;;;;;;;9.39;100.00;98136.94;5076533;28;20116;-91
2022/12/08 03:07:07;;;;;;;26.33;14.35;;;;;;;9.53;100.00;98144.47;5077612;28;20113;-91
2022/12/08 03:09:38;;;;;;;25.73;14.75;;;;;;;9.60;100.00;98130.94;5076254;28;20043;-91
2022/12/08 03:12:11;;;;;;;28.05;14.20;;;;;;;9.51;100.00;98128.59;5077615;28;20040;-91
2022/12/08 03:14:40;;;;;;;24.83;14.50;;;;;;;9.44;100.00;98127.06;5075969;28;20397;-92
2022/12/08 03:17:07;;;;;;;26.88;15.40;;;;;;;9.48;100.00;98134.00;5074268;28;20510;-91
2022/12/08 03:19:36;;;;;;;30.88;15.70;;;;;;;9.46;100.00;98130.53;5078616;28;20040;-91
2022/12/08 03:22:06;;;;;;;26.70;14.98;;;;;;;9.34;100.00;98105.25;5073199;28;20033;-91
2022/12/08 03:24:33;;;;;;;;;;;;;;;9.48;100.00;98134.00;5077773;28;20444;-93
2022/12/08 03:27:02;;;;;;;23.77;14.82;;;;;;;9.31;100.00;98115.97;5079300;28;19971;-91
2022/12/08 03:29:29;;;;;;;25.88;15.63;;;;;;;9.26;100.00;98117.94;5078656;28;20043;-92
2022/12/08 03:31:59;;;;;;;31.98;16.55;;;;;;;9.42;100.00;98145.69;5076095;28;20040;-92
2022/12/08 03:34:28;;;;;;;27.15;15.70;;;;;;;9.32;100.00;98125.66;5072695;28;20502;-92
2022/12/08 03:36:54;;;;;;;27.25;16.23;;;;;;;9.33;100.00;98134.50;5075846;28;20028;-92
2022/12/08 03:39:22;;;;;;;25.80;15.82;;;;;;;9.24;100.00;98125.06;5078607;28;20036;-93
2022/12/08 03:41:47;;;;;;;25.38;15.82;;;;;;;9.30;100.00;98129.28;5080891;28;20405;-92
2022/12/08 03:44:13;;;;;;;27.55;16.90;;;;;;;9.36;100.00;98139.72;5077181;28;20044;-92
2022/12/08 03:46:39;;;;;;;31.00;16.27;;;;;;;9.25;100.00;98132.94;5074772;28;20041;-91
2022/12/08 03:49:05;;;;;;;30.98;16.05;;;;;;;9.36;100.00;98159.16;5075641;28;20036;-92
2022/12/08 03:51:31;;;;;;;27.52;16.00;;;;;;;9.13;100.00;98116.56;5076892;28;20089;-91
2022/12/08 03:53:57;;;;;;;29.33;15.73;;;;;;;9.20;100.00;98139.34;5078077;28;20478;-92
2022/12/08 03:56:27;;;;;;;31.35;16.95;;;;;;;9.10;100.00;98124.63;5078803;28;20108;-93
2022/12/08 03:58:53;;;;;;;26.83;16.58;;;;;;;9.26;100.00;98149.75;5077605;28;20071;-91
2022/12/08 04:01:20;;;;;;;31.13;16.88;;;;;;;9.24;100.00;98140.97;5072217;28;20136;-91
2022/12/08 04:03:45;;;;;;;28.08;16.73;;;;;;;9.21;100.00;98141.91;5074345;28;20096;-91
2022/12/08 04:06:11;;;;;;;33.53;17.48;;;;;;;9.33;100.00;98156.59;5079331;28;20135;-92
2022/12/08 04:08:37;;;;;;;33.08;19.40;;;;;;;9.29;100.00;98149.66;5079250;28;20501;-92
2022/12/08 04:11:05;;;;;;;27.60;16.52;;;;;;;9.30;100.00;98137.25;5079474;28;20047;-91
2022/12/08 04:13:32;;;;;;;33.30;19.88;;;;;;;9.32;100.00;98140.72;5079134;28;20140;-92
2022/12/08 04:15:58;;;;;;;33.55;19.45;;;;;;;9.38;100.00;98154.66;5076060;28;20044;-92
2022/12/08 04:18:24;;;;;;;32.42;19.63;;;;;;;9.32;100.00;98132.75;5076923;28;20041;-92
2022/12/08 04:20:50;;;;;;;33.13;19.75;;;;;;;9.37;100.00;98150.28;5077891;28;20060;-91
2022/12/08 04:23:15;;;;;;;32.13;19.30;;;;;;;9.36;100.00;98137.91;5079600;28;20044;-92
2022/12/08 04:25:41;;;;;;;28.95;17.60;;;;;;;9.35;100.00;98140.63;5079085;28;20153;-92
2022/12/08 04:28:07;;;;;;;29.27;17.92;;;;;;;9.31;100.00;98125.72;5079048;28;20040;-92
2022/12/08 04:30:34;;;;;;;38.47;20.67;;;;;;;9.43;100.00;98147.44;5080921;28;20036;-92
2022/12/08 04:33:00;;;;;;;33.47;18.27;;;;;;;9.39;100.00;98139.59;5078731;28;20044;-93
2022/12/08 04:35:27;;;;;;;31.48;19.52;;;;;;;9.30;100.00;98127.50;5073199;28;20551;-92
2022/12/08 04:37:53;;;;;;;32.95;20.67;;;;;;;9.44;100.00;98141.19;5079461;28;20074;-92
2022/12/08 04:40:19;;;;;;;33.17;19.92;;;;;;;9.48;100.00;98141.09;5079532;28;20033;-93
2022/12/08 04:42:45;;;;;;;32.05;20.05;;;;;;;9.52;100.00;98146.28;5075231;28;20036;-93
2022/12/08 04:45:11;;;;;;;32.85;19.05;;;;;;;9.52;100.00;98148.91;5074968;28;20063;-93
2022/12/08 04:47:38;;;;;;;31.85;18.98;;;;;;;9.41;100.00;98127.16;5080864;28;20032;-92
2022/12/08 04:50:07;;;;;;;28.98;16.73;;;;;;;9.51;100.00;98146.31;5077856;28;20489;-92
2022/12/08 04:52:33;;;;;;;36.15;18.98;;;;;;;9.56;100.00;98152.31;5078999;28;20049;-92
2022/12/08 04:54:59;;;;;;;31.45;18.75;;;;;;;9.54;100.00;98154.16;5077825;28;20048;-92
2022/12/08 04:57:25;;;;;;;32.47;17.85;;;;;;;9.40;100.00;98130.72;5084044;28;20511;-93
2022/12/08 04:59:50;;;;;;;28.67;18.40;;;;;;;9.50;100.00;98155.16;5079771;28;20045;-91
2022/12/08 05:02:16;;;;;;;30.27;17.88;;;;;;;9.46;100.00;98143.81;5077774;28;20040;-92
2022/12/08 05:04:43;;;;;;;29.45;17.70;;;;;;;9.47;100.00;98148.19;5077880;28;20036;-93
2022/12/08 05:07:09;;;;;;;30.90;18.63;;;;;;;9.59;100.00;98169.03;5082526;28;20036;-93
2022/12/08 05:09:35;;;;;;;33.13;19.70;;;;;;;9.56;100.00;98161.16;5079973;28;20038;-91
2022/12/08 05:12:01;;;;;;;30.98;18.83;;;;;;;9.57;100.00;98160.25;5082465;28;20036;-92
2022/12/08 05:14:27;;;;;;;36.03;18.75;;;;;;;9.56;100.00;98161.16;5078340;28;20086;-92
2022/12/08 05:16:52;;;;;;;34.75;18.30;;;;;;;9.52;100.00;98145.38;5077383;28;20040;-94
2022/12/08 05:19:18;;;;;;;35.00;18.85;;;;;;;9.51;100.00;98155.13;5077162;28;20044;-92
2022/12/08 05:21:45;;;;;;;31.55;18.58;;;;;;;9.48;100.00;98149.03;5080194;28;20537;-90
2022/12/08 05:24:11;;;;;;;35.05;17.85;;;;;;;9.58;100.00;98167.28;5081255;28;20059;-91
2022/12/08 05:26:37;;;;;;;29.88;17.70;;;;;;;9.50;100.00;98147.22;5079481;28;20406;-92
2022/12/08 05:29:03;;;;;;;29.88;17.13;;;;;;;9.51;100.00;98156.94;5081172;28;20029;-92
2022/12/08 05:31:29;;;;;;;28.30;18.08;;;;;;;9.42;100.00;98150.13;5078874;28;20040;-93
2022/12/08 05:33:55;;;;;;;28.92;16.77;;;;;;;9.43;100.00;98150.09;5076390;28;20067;-92
2022/12/08 05:36:21;;;;;;;25.30;15.05;;;;;;;9.44;100.00;98154.47;5080436;28;20036;-93
2022/12/08 05:38:48;;;;;;;29.48;16.73;;;;;;;9.55;100.00;98162.06;5082419;28;20040;-93
2022/12/08 05:41:16;;;;;;;26.38;15.55;;;;;;;9.39;100.00;98126.31;5077575;28;20051;-92
2022/12/08 05:43:42;;;;;;;25.85;15.38;;;;;;;9.57;100.00;98164.69;5080907;28;20045;-92
2022/12/08 05:46:08;;;;;;;25.88;15.65;;;;;;;9.47;100.00;98153.50;5077786;28;20453;-92
2022/12/08 05:48:35;;;;;;;24.60;15.07;;;;;;;9.50;100.00;98152.53;5078378;28;20036;-92
2022/12/08 05:51:01;;;;;;;30.60;15.93;;;;;;;9.40;100.00;98147.50;5081317;28;20036;-91
2022/12/08 05:53:27;;;;;;;28.52;15.90;;;;;;;9.48;100.00;98151.69;5079849;28;20053;-93
2022/12/08 05:55:54;;;;;;;27.23;15.45;;;;;;;9.53;100.00;98163.06;5080980;28;20150;-92
2022/12/08 05:58:22;;;;;;;27.90;15.65;;;;;;;9.35;100.00;98138.00;5076497;28;20036;-93
2022/12/08 06:00:48;;;;;;;27.95;15.98;;;;;;;9.40;100.00;98146.66;5080611;28;20557;-93
2022/12/08 06:03:16;;;;;;;27.92;15.45;;;;;;;9.49;100.00;98159.63;5077533;28;20039;-90
2022/12/08 06:05:44;;;;;;;25.83;15.55;;;;;;;9.54;100.00;98173.63;5079643;28;20044;-92
2022/12/08 06:08:10;;;;;;;29.25;16.70;;;;;;;9.29;100.00;98154.97;5077563;28;20569;-92
2022/12/08 06:10:37;;;;;;;28.65;16.15;;;;;;;9.29;100.00;98162.06;5076144;28;20062;-92
2022/12/08 06:13:04;;;;;;;29.98;15.55;;;;;;;9.26;100.00;98157.72;5081302;28;20409;-93
2022/12/08 06:15:30;;;;;;;32.20;17.27;;;;;;;9.38;100.00;98181.19;5079288;28;20123;-91
2022/12/08 06:17:56;;;;;;;26.80;16.45;;;;;;;9.27;100.00;98153.28;5075826;28;20127;-93
2022/12/08 06:20:22;;;;;;;31.95;17.20;;;;;;;9.40;100.00;98160.78;5077309;28;20405;-93
2022/12/08 06:22:47;;;;;;;32.83;17.45;;;;;;;9.44;100.00;98177.50;5082921;28;20535;-93
2022/12/08 06:25:13;;;;;;;32.80;17.73;;;;;;;9.29;100.00;98162.06;5081256;28;20043;-91
2022/12/08 06:27:39;;;;;;;28.83;17.35;;;;;;;9.29;100.00;98160.25;5083982;28;20434;-92
2022/12/08 06:30:07;;;;;;;30.67;17.95;;;;;;;9.44;100.00;98180.16;5080504;28;20041;-91
2022/12/08 06:32:33;;;;;;;37.83;18.63;;;;;;;9.46;100.00;98183.63;5079919;28;20036;-91
2022/12/08 06:34:59;;;;;;;32.67;17.58;;;;;;;9.44;100.00;98185.44;5081370;28;20036;-92
2022/12/08 06:37:25;;;;;;;31.10;17.80;;;;;;;9.40;100.00;98183.81;5079637;28;20098;-92
2022/12/08 06:39:50;;;;;;;34.83;18.35;;;;;;;9.47;100.00;98185.34;5079036;28;20056;-93
2022/12/08 06:45:19;;;;;;;34.47;18.27;;;;;;;9.44;100.00;98196.94;5089527;27;20370;-91
2022/12/08 06:47:45;;;;;;;28.20;17.27;;;;;;;9.51;100.00;98202.91;5102265;28;20067;-90
2022/12/08 06:50:12;;;;;;;33.60;17.80;;;;;;;9.45;100.00;98195.13;5068882;28;20040;-92
2022/12/08 06:52:39;;;;;;;30.70;17.60;;;;;;;9.48;100.00;98189.75;5068769;28;21328;-92
2022/12/08 06:55:07;;;;;;;47.17;24.20;;;;;;;9.55;100.00;98209.84;5068423;28;20033;-91
2022/12/08 06:57:32;;;;;;;43.50;22.17;;;;;;;9.58;100.00;98212.41;5068622;28;20037;-92
2022/12/08 06:59:58;;;;;;;37.22;21.42;;;;;;;9.44;100.00;98188.09;5068619;28;20056;-90
2022/12/08 07:02:25;;;;;;;36.60;20.83;;;;;;;9.60;100.00;98230.94;5067628;28;20041;-92
2022/12/08 07:04:51;;;;;;;36.30;19.25;;;;;;;9.63;100.00;98231.72;5065458;28;20048;-91
2022/12/08 07:07:17;;;;;;;35.25;20.55;;;;;;;9.59;100.00;98210.63;5067771;28;20032;-92
2022/12/08 07:09:43;;;;;;;30.92;19.15;;;;;;;9.75;100.00;98232.25;5068954;28;20517;-92
2022/12/08 07:12:09;;;;;;;35.35;19.67;;;;;;;9.75;100.00;98226.94;5068599;28;20037;-91
2022/12/08 07:14:35;;;;;;;35.45;20.88;;;;;;;9.77;100.00;98225.97;5068208;28;20036;-91
2022/12/08 07:17:01;;;;;;;31.60;18.02;;;;;;;9.58;100.00;98204.44;5066914;28;20045;-91
2022/12/08 07:19:28;;;;;;;33.20;19.25;;;;;;;9.67;100.00;98211.22;5068251;28;20045;-91
2022/12/08 07:21:54;;;;;;;32.75;18.52;;;;;;;9.72;100.00;98209.31;5067403;28;20040;-91
2022/12/08 07:24:20;;;;;;;32.58;17.85;;;;;;;9.78;100.00;98216.19;5071057;28;20039;-92
2022/12/08 07:26:46;;;;;;;34.90;18.60;;;;;;;9.90;100.00;98231.75;5067937;28;20098;-91
2022/12/08 07:29:12;;;;;;;33.13;19.13;;;;;;;9.88;100.00;98217.63;5067876;28;20052;-91
2022/12/08 07:31:38;;;;;;;30.60;18.13;;;;;;;9.97;100.00;98216.47;5065700;28;20036;-92
2022/12/08 07:34:03;;;;;;;40.80;21.48;;;;;;;10.00;100.00;98225.22;5066944;28;20036;-91
2022/12/08 07:36:31;;;;;;;50.55;23.73;;;;;;;9.92;100.00;98210.44;5066902;28;20060;-93
2022/12/08 07:38:58;;;;;;;41.83;21.83;;;;;;;10.04;100.00;98228.63;5067300;28;20037;-91
2022/12/08 07:41:25;;;;;;;42.97;22.55;;;;;;;10.00;100.00;98224.34;5066300;28;20119;-90
2022/12/08 07:43:52;;;;;;;43.10;23.80;;;;;;;10.03;100.00;98222.44;5067082;28;20517;-93
2022/12/08 07:46:20;;;;;;;41.72;22.58;;;;;;;10.01;100.00;98207.47;5066044;28;20045;-92
2022/12/08 07:48:46;;;;;;;43.45;22.98;;;;;;;10.16;100.00;98224.69;5065946;28;20524;-90
2022/12/08 07:51:14;;;;;;;44.35;24.90;;;;;;;10.14;100.00;98214.09;5067077;28;20127;-91
2022/12/08 07:53:43;;;;;;;45.60;24.65;;;;;;;10.11;100.00;98221.34;5066590;28;20036;-92
2022/12/08 07:56:10;;;;;;;38.95;22.63;;;;;;;10.18;100.00;98229.03;5055388;28;20155;-91
2022/12/08 07:58:36;;;;;;;41.10;21.67;;;;;;;10.31;100.00;98233.97;5053439;28;20041;-92
2022/12/08 08:01:02;;;;;;;37.65;20.88;;;;;;;10.23;100.00;98202.28;5052752;28;20087;-92
2022/12/08 08:03:31;;;;;;;;;;;;;;;10.60;100.00;98256.84;5054406;28;20064;-92
2022/12/08 08:06:02;;;;;;;35.90;19.35;;;;;;;10.65;100.00;98249.59;5054241;28;19956;-92
2022/12/08 08:08:28;;;;;;;40.63;20.83;;;;;;;10.59;100.00;98229.41;5053991;28;20045;-91
2022/12/08 08:10:55;;;;;;;34.78;18.98;;;;;;;10.63;100.00;98247.00;5053878;28;20827;-89
2022/12/08 08:13:23;;;;;;;39.03;21.30;;;;;;;10.54;100.00;98230.47;5052592;28;20040;-92
2022/12/08 08:15:49;;;;;;;39.15;20.38;;;;;;;10.77;100.00;98251.78;5053732;28;20052;-92
2022/12/08 08:18:15;;;;;;;38.03;20.75;;;;;;;10.71;100.00;98248.50;5053708;28;20310;-92
2022/12/08 08:20:41;;;;;;;35.35;20.00;;;;;;;10.75;100.00;98248.31;5054106;28;20068;-91
2022/12/08 08:23:09;;;;;;;38.83;20.95;;;;;;;10.80;100.00;98234.84;5054043;28;20095;-92
2022/12/08 08:25:38;;;;;;;34.92;19.55;;;;;;;10.98;100.00;98257.28;5054214;28;20036;-91
2022/12/08 08:28:08;;;;;;;36.10;20.53;;;;;;;10.84;100.00;98234.72;5053931;28;20041;-92
2022/12/08 08:30:34;;;;;;;37.97;22.10;;;;;;;10.78;100.00;98229.63;5053354;28;20043;-92
2022/12/08 08:33:00;;;;;;;37.10;21.58;;;;;;;11.04;100.00;98257.91;5054018;28;20132;-90
2022/12/08 08:35:26;;;;;;;38.05;20.95;;;;;;;11.18;100.00;98257.38;5054540;28;20049;-91
2022/12/08 08:37:52;;;;;;;42.67;24.02;;;;;;;11.26;100.00;98247.31;5054122;28;20041;-92
2022/12/08 08:40:18;;;;;;;33.95;20.45;;;;;;;11.20;100.00;98244.03;5053650;28;20048;-91
2022/12/08 08:42:44;;;;;;;26.15;16.25;;;;;;;11.00;100.00;98236.81;5053689;28;20033;-92
2022/12/08 08:45:14;;;;;;;28.02;16.65;;;;;;;11.19;100.00;98259.13;5053909;28;20053;-92
2022/12/08 08:47:40;;;;;;;28.13;16.60;;;;;;;11.18;100.00;98268.03;5052663;28;20048;-91
2022/12/08 08:50:09;;;;;;;22.73;13.75;;;;;;;10.97;100.00;98236.91;5054071;28;20074;-93
2022/12/08 08:52:37;;;;;;;27.85;14.43;;;;;;;11.13;100.00;98254.03;5053977;28;20045;-93
2022/12/08 08:55:03;;;;;;;25.40;13.07;;;;;;;11.23;100.00;98263.41;5053745;28;20044;-93
2022/12/08 08:57:32;;;;;;;24.50;12.80;;;;;;;11.21;100.00;98265.28;5053888;28;20037;-91
2022/12/08 09:00:00;;;;;;;20.23;12.48;;;;;;;11.29;100.00;98265.81;5054066;28;20040;-92
2022/12/08 09:02:37;;;;;;;20.80;12.82;;;;;;;11.26;100.00;98244.66;5054341;28;20088;-93
2022/12/08 09:05:06;;;;;;;21.98;13.32;;;;;;;11.16;100.00;98229.97;5055167;28;20041;-91
2022/12/08 09:07:32;;;;;;;;;;;;;;;11.38;100.00;98271.72;5054774;28;20406;-93
2022/12/08 09:10:01;;;;;;;25.38;11.50;;;;;;;11.18;100.00;98249.41;5056547;28;19960;-91
2022/12/08 09:12:28;;;;;;;20.95;11.95;;;;;;;11.06;100.00;98241.88;5056764;28;20052;-93
2022/12/08 09:14:58;;;;;;;24.23;12.23;;;;;;;11.18;100.00;98276.00;5057844;28;20065;-92
2022/12/08 09:17:37;;;;;;;20.75;10.40;;;;;;;10.88;100.00;98249.59;5056602;28;20056;-91
2022/12/08 09:20:08;;;;;;;17.45;10.65;;;;;;;10.85;100.00;98241.75;5057552;28;20048;-94
2022/12/08 09:22:37;;;;;;;22.80;11.90;;;;;;;10.90;100.00;98237.13;5057737;28;20041;-93
2022/12/08 09:25:10;;;;;;;18.83;12.02;;;;;;;10.95;100.00;98233.44;5057742;28;20040;-92
2022/12/08 09:27:56;;;;;;;22.90;12.90;;;;;;;11.21;100.00;98272.38;5056501;28;20490;-92
2022/12/08 09:30:27;;;;;;;23.33;13.15;;;;;;;11.00;100.00;98227.03;5053209;28;20137;-94
2022/12/08 09:33:08;;;;;;;24.02;13.77;;;;;;;11.17;100.00;98262.75;5048799;28;20048;-93
2022/12/08 09:35:43;;;;;;;25.92;13.38;;;;;;;11.10;100.00;98251.47;5058664;28;20041;-95
2022/12/08 09:38:18;;;;;;;25.58;14.30;;;;;;;10.99;100.00;98229.72;5058571;28;20052;-92
2022/12/08 09:40:49;;;;;;;27.35;13.82;;;;;;;11.23;100.00;98259.88;5058041;28;20517;-91
2022/12/08 09:43:44;;;;;;;22.13;14.05;;;;;;;11.15;100.00;98236.22;5057986;28;20106;-93
2022/12/08 09:46:13;;;;;;;22.50;13.80;;;;;;;11.23;100.00;98230.59;5058302;28;20045;-93
2022/12/08 09:48:48;;;;;;;19.45;12.68;;;;;;;11.36;100.00;98228.31;5057454;28;20045;-93
2022/12/08 09:51:23;;;;;;;19.55;9.48;;;;;;;11.34;100.00;98224.84;5059783;28;20033;-94
2022/12/08 09:54:16;;;;;;;17.85;9.82;;;;;;;11.34;100.00;98215.06;5060360;28;20045;-93
2022/12/08 09:56:48;;;;;;;16.58;10.07;;;;;;;11.48;100.00;98226.06;5060407;28;20106;-94
2022/12/08 09:59:22;;;;;;;14.32;9.63;;;;;;;11.44;100.00;98208.47;5061034;28;20040;-92
2022/12/08 10:05:25;;;;;;;23.30;12.13;;;;;;;11.64;100.00;98199.66;5041270;28;20101;-94
2022/12/08 10:08:19;;;;;;;20.45;10.80;;;;;;;11.70;100.00;98198.56;5047468;28;20112;-94
2022/12/08 10:10:56;;;;;;;18.50;11.43;;;;;;;11.84;100.00;98213.97;5059409;28;20041;-92
2022/12/08 10:13:42;;;;;;;23.63;11.10;;;;;;;11.86;100.00;98215.66;5058275;28;20072;-93
2022/12/08 10:16:25;;;;;;;17.07;10.07;;;;;;;11.72;100.00;98204.69;5057437;28;20041;-93
2022/12/08 10:19:10;;;;;;;16.15;9.70;;;;;;;11.92;100.00;98223.41;5056670;28;20521;-93
2022/12/08 10:21:40;;;;;;;17.02;10.07;;;;;;;11.98;100.00;98214.31;5056806;28;20049;-93
2022/12/08 10:24:15;;;;;;;15.80;10.30;;;;;;;11.88;100.00;98188.97;5057003;28;20041;-92
2022/12/08 10:26:41;;;;;;;13.27;9.07;;;;;;;12.05;100.00;98225.56;5055336;28;20475;-94
2022/12/08 10:29:21;;;;;;;17.77;10.55;;;;;;;11.85;100.00;98189.09;5055443;28;20387;-93
2022/12/08 10:31:47;;;;;;;22.98;11.60;;;;;;;12.01;100.00;98219.50;5056862;28;20048;-96
2022/12/08 10:34:55;;;;;;;18.63;11.30;;;;;;;11.94;100.00;98194.06;5057650;28;20048;-92
2022/12/08 10:37:26;;;;;;;17.40;10.77;;;;;;;11.99;100.00;98197.41;5057188;28;20041;-92
2022/12/08 10:40:00;;;;;;;21.02;11.75;;;;;;;11.92;100.00;98183.44;5056290;28;20048;-95
2022/12/08 10:42:45;;;;;;;17.50;11.25;;;;;;;12.02;100.00;98188.41;5056684;28;20041;-93
2022/12/08 10:45:22;;;;;;;15.63;9.82;;;;;;;12.07;100.00;98173.09;5057831;28;20552;-94
2022/12/08 10:48:05;;;;;;;17.13;10.25;;;;;;;12.13;100.00;98176.34;5058149;28;20069;-94
2022/12/08 10:50:44;;;;;;;16.33;10.18;;;;;;;12.16;100.00;98172.69;5057764;28;20045;-94
2022/12/08 10:53:25;;;;;;;21.33;10.40;;;;;;;12.19;100.00;98175.22;5055677;28;20055;-92
2022/12/08 10:56:22;;;;;;;16.17;8.38;;;;;;;12.14;100.00;98161.22;5059054;28;20045;-94
2022/12/08 10:59:18;;;;;;;16.17;9.40;;;;;;;12.35;100.00;98206.56;5058371;28;20045;-91
2022/12/08 11:01:53;;;;;;;15.70;8.60;;;;;;;12.05;100.00;98169.63;5058366;28;20055;-94
2022/12/08 11:04:32;;;;;;;;;;;;;;;;;;;;;
2022/12/08 11:07:07;;;;;;;22.08;10.35;;;;;;;12.10;100.00;98215.59;5056683;28;20060;-93
2022/12/08 11:10:08;;;;;;;16.08;8.00;;;;;;;12.08;100.00;98201.50;5056240;28;20486;-94
2022/12/08 11:12:52;;;;;;;19.05;8.10;;;;;;;11.82;100.00;98167.88;5055816;28;20041;-93
2022/12/08 11:15:27;;;;;;;13.07;6.60;;;;;;;11.98;100.00;98194.81;5056102;28;20045;-94
2022/12/08 11:18:26;;;;;;;12.35;6.07;;;;;;;11.79;100.00;98158.22;5057136;28;20072;-92
2022/12/08 11:21:07;;;;;;;16.02;8.10;;;;;;;11.85;100.00;98152.66;5053934;28;20048;-91
2022/12/08 11:24:00;;;;;;;14.75;7.97;;;;;;;11.87;100.00;98155.25;5055606;28;20045;-94
2022/12/08 11:26:33;;;;;;;12.15;6.53;;;;;;;11.83;100.00;98170.50;5055026;28;20037;-93
2022/12/08 11:28:59;;;;;;;19.17;8.80;;;;;;;11.79;100.00;98166.22;5057382;28;20045;-93
2022/12/08 11:31:35;;;;;;;14.63;7.90;;;;;;;11.75;100.00;98161.09;5057187;28;20428;-93
2022/12/08 11:34:09;;;;;;;10.68;6.70;;;;;;;11.84;100.00;98171.34;5058790;28;20497;-94
2022/12/08 11:36:39;;;;;;;14.68;7.93;;;;;;;11.85;100.00;98162.44;5061008;28;20638;-95
2022/12/08 11:39:07;;;;;;;13.05;7.72;;;;;;;12.02;100.00;98172.44;5056303;28;20043;-92